Terminal Aerodrome Forecast
Issued by NWS

Home | Current Version | Previous Version | Graphics & Text | Print | Product List | Glossary On
Versions: 1 2 3 4 5 6 7 8 9 10 11 12 13 14 15
373
FTUS43 KGRB 211128
TAFMTW
TAF
KMTW 211128Z 2112/2212 29010KT P6SM VCSH SCT020 BKN090
      TEMPO 2113/2115 BKN020
     FM211500 31011G18KT P6SM BKN035
     FM212300 30007KT P6SM SCT040
     FM220300 28004KT P6SM SKC=

USA.gov is the U.S. government's official web portal to all federal, state and local government web resources and services.